Latest Weather Observations for Scottsdale

IDT60801

Issued at 5:02 pm EST Tuesday 27 September 2016 (issued every 30 minutes, with the page automatically refreshed every 10 minutes)

About weather observations | Map of weather stations | Latest weather observations for TAS | Other Formats
Station Details ID: 091219 Name: SCOTTSDALE (WEST MINSTONE ROAD) Lat: -41.17 Lon: 147.49 Height: 197.5 m
Data from the previous 72 hours. | See also: Recent months at Scottsdale
Date/Time
EST
Temp
°C
App
Temp
°C
Dew
Point
°C
Rel
Hum
%
Delta-T
°C
Wind Press
QNH
hPa
Press
MSL
hPa
Rain since
9am
mm
Dir  Spd
km/h
Gust
km/h
Spd
kts
Gust
kts
27/05:00pm 12.1 7.8 7.0 71 2.5 NW 19 28 10 15 1007.8 - 0.0
27/04:30pm 12.4 7.4 6.4 67 2.9 NW 22 35 12 19 1007.3 - 0.0
27/04:00pm 12.9 7.6 6.7 66 3.0 NW 24 32 13 17 1007.0 - 0.0
27/03:30pm 14.0 9.0 6.4 60 3.7 NNW 22 30 12 16 1006.9 - 0.0
27/03:00pm 13.8 9.7 6.4 61 3.6 NW 17 30 9 16 1007.0 1007.4 0.0
27/02:30pm 14.7 10.3 6.6 58 4.0 WNW 19 30 10 16 1007.0 - 0.0
27/02:00pm 13.8 9.5 6.9 63 3.4 WNW 19 30 10 16 1007.1 - 0.0
27/01:30pm 15.0 10.4 6.7 57 4.1 NW 20 26 11 14 1007.1 - 0.0
27/01:00pm 15.2 12.0 6.9 57 4.1 NNW 13 20 7 11 1007.1 - 0.0
27/12:30pm 14.6 10.4 3.8 48 5.0 NW 15 20 8 11 1007.5 - 0.0
27/12:00pm 14.1 9.7 4.5 52 4.5 WNW 17 24 9 13 1007.6 1007.9 0.0
27/11:30am 14.4 10.7 6.4 58 3.9 NW 15 22 8 12 1007.7 - 0.0
27/11:00am 13.7 10.0 4.7 54 4.2 NW 13 19 7 10 1007.8 - 0.0
27/10:30am 12.5 9.8 5.5 62 3.3 WNW 9 15 5 8 1008.1 - 0.0
27/10:00am 12.5 9.7 5.3 61 3.4 W 9 17 5 9 1008.2 - 0.0
27/09:30am 11.9 9.6 5.8 66 2.9 NNW 7 13 4 7 1008.1 - 0.0
27/09:00am 11.1 8.9 5.5 68 2.6 WNW 6 7 3 4 1007.9 1008.1 0.0
27/08:30am 10.5 9.1 5.3 70 2.4 WNW 2 6 1 3 1007.9 - 0.0
27/08:00am 9.1 8.0 5.2 76 1.8 CALM 0 0 0 0 1008.0 - 0.0
27/07:30am 8.2 5.5 5.6 84 1.2 SSE 9 11 5 6 1007.8 - 0.0
27/07:00am 6.5 4.0 4.9 89 0.7 SSE 7 11 4 6 1007.7 - 0.0
27/06:30am 5.1 1.3 3.7 91 0.6 SSE 13 15 7 8 1007.6 - 0.0
27/06:00am 4.8 1.3 3.4 91 0.6 S 11 15 6 8 1007.3 1007.7 0.0
27/05:30am 4.5 1.3 3.3 92 0.5 SE 9 11 5 6 1007.3 - 0.0
27/05:00am 5.3 1.9 4.1 92 0.5 S 11 15 6 8 1007.1 - 0.0
27/04:30am 5.3 1.4 3.4 87 0.8 SSE 13 15 7 8 1007.0 - 0.0
27/04:00am 3.9 -0.5 2.7 92 0.5 SSE 15 17 8 9 1007.0 - 0.0
27/03:30am 3.9 0.3 2.9 93 0.4 SE 11 13 6 7 1007.1 - 0.0
27/03:00am 4.5 0.9 3.1 91 0.6 SE 11 13 6 7 1007.3 1007.6 0.0
27/02:30am 3.4 0.7 2.7 95 0.3 SE 6 7 3 4 1007.7 - 0.0
27/02:00am 4.1 0.9 3.1 93 0.4 SSE 9 11 5 6 1007.8 - 0.0
27/01:30am 4.4 2.1 3.0 91 0.6 SE 4 9 2 5 1008.1 - 0.0
27/01:00am 4.7 1.6 3.5 92 0.5 SSE 9 11 5 6 1008.3 - 0.0
27/12:30am 4.1 1.3 3.4 95 0.3 S 7 9 4 5 1008.5 - 0.0
27/12:00am 5.3 2.3 3.9 91 0.6 S 9 11 5 6 1008.7 1008.9 0.0
 
Date/Time
EST
Temp
°C
App
Temp
°C
Dew
Point
°C
Rel
Hum
%
Delta-T
°C
Wind Press
QNH
hPa
Press
MSL
hPa
Rain since
9am
mm
Dir  Spd
km/h
Gust
km/h
Spd
kts
Gust
kts
26/11:30pm 5.7 2.3 4.1 89 0.7 S 11 13 6 7 1008.8 - 0.0
26/11:00pm 5.5 2.5 4.1 91 0.6 SSE 9 13 5 7 1009.1 - 0.0
26/10:30pm 5.2 1.9 4.3 94 0.4 SSE 11 13 6 7 1009.1 - 0.0
26/10:00pm 5.5 2.6 4.6 94 0.4 SE 9 11 5 6 1009.4 - 0.0
26/09:30pm 4.9 3.6 4.2 95 0.3 CALM 0 0 0 0 1009.6 - 0.0
26/09:00pm 6.0 4.8 4.6 91 0.6 CALM 0 0 0 0 1009.5 1009.8 0.0
26/08:30pm 5.6 4.4 4.4 92 0.5 CALM 0 6 0 3 1009.6 - 0.0
26/08:00pm 6.1 4.1 4.3 88 0.8 W 4 7 2 4 1009.5 - 0.0
26/07:30pm 7.4 6.3 5.2 86 1.0 CALM 0 4 0 2 1009.4 - 0.0
26/07:00pm 7.4 5.2 5.2 86 1.0 NE 6 7 3 4 1009.3 - 0.0
26/06:30pm 8.4 5.7 5.8 84 1.2 NW 9 15 5 8 1009.0 - 0.0
26/06:00pm 9.6 5.6 5.0 73 2.1 WNW 15 20 8 11 1008.9 1009.1 0.0
26/05:30pm 10.4 6.0 4.7 68 2.6 NW 17 22 9 12 1008.8 - 0.0
26/05:00pm 11.2 6.6 5.7 69 2.6 NNW 19 24 10 13 1008.5 - 0.0
26/04:30pm 11.8 6.6 5.6 66 2.9 NNW 22 32 12 17 1008.2 - 0.0
26/04:00pm 11.3 7.4 5.5 67 2.7 NW 15 22 8 12 1008.2 - 0.0
26/03:30pm 11.3 6.6 5.0 65 2.9 NW 19 26 10 14 1008.2 - 0.0
26/03:00pm 13.7 9.8 5.3 57 4.0 NW 15 30 8 16 1008.2 1008.4 0.0
26/02:30pm 13.4 8.7 5.1 57 3.9 NW 19 26 10 14 1008.3 - 0.0
26/02:00pm 12.8 9.4 3.8 54 4.1 WNW 11 19 6 10 1008.5 - 0.0
26/01:30pm 13.2 9.4 5.6 60 3.6 NW 15 24 8 13 1008.7 - 0.0
26/01:00pm 12.4 8.5 3.6 55 4.0 NW 13 22 7 12 1008.9 - 0.0
26/12:30pm 12.7 9.3 3.9 55 4.0 WNW 11 20 6 11 1009.4 - 0.0
26/12:00pm 12.0 7.6 2.7 53 4.1 WNW 15 22 8 12 1009.7 1010.0 0.0
26/11:30am 12.2 8.2 3.0 53 4.1 WNW 13 20 7 11 1009.9 - 0.0
26/11:00am 10.7 6.3 2.7 57 3.5 WNW 15 24 8 13 1010.2 - 0.0
26/10:30am 11.8 7.7 4.4 60 3.4 NW 15 20 8 11 1010.5 - 0.0
26/10:00am 9.8 6.0 1.5 56 3.5 NW 11 17 6 9 1010.7 - 0.0
26/09:30am 9.8 7.2 4.0 67 2.6 NW 7 11 4 6 1010.8 - 0.0
26/09:00am 8.6 5.6 4.3 74 1.9 NNW 9 11 5 6 1010.9 1011.2 0.2
26/08:30am 8.3 5.7 4.2 75 1.8 NW 7 9 4 5 1010.9 - 0.2
26/08:00am 8.3 5.7 4.2 75 1.8 N 7 9 4 5 1010.9 - 0.2
26/07:30am 7.2 6.3 5.9 91 0.6 CALM 0 0 0 0 1011.0 - 0.2
26/07:00am 6.5 4.9 6.3 99 0.1 SE 4 6 2 3 1010.7 - 0.2
26/06:30am 5.1 2.8 4.6 97 0.2 SSE 6 7 3 4 1010.7 - 0.2
26/06:00am 5.4 4.3 4.9 97 0.2 CALM 0 0 0 0 1010.4 1010.7 0.2
26/05:30am 5.2 3.6 4.7 97 0.2 NE 2 6 1 3 1010.3 - 0.2
26/05:00am 5.4 2.5 4.7 95 0.3 E 9 11 5 6 1010.1 - 0.2
26/04:30am 5.0 2.6 4.5 97 0.2 N 6 6 3 3 1010.1 - 0.2
26/04:00am 5.2 4.0 4.5 95 0.3 CALM 0 0 0 0 1009.9 - 0.2
26/03:30am 5.9 4.7 4.8 93 0.5 CALM 0 0 0 0 1010.0 - 0.2
26/03:00am 6.3 5.2 5.2 93 0.5 CALM 0 0 0 0 1010.0 1010.3 0.2
26/02:30am 6.8 4.4 5.2 89 0.7 ESE 7 11 4 6 1010.1 - 0.2
26/02:00am 7.6 5.4 6.1 90 0.7 ESE 7 9 4 5 1010.2 - 0.2
26/01:30am 7.5 5.2 5.7 88 0.8 SE 7 9 4 5 1010.3 - 0.2
26/01:00am 7.4 5.6 5.6 88 0.8 SE 4 6 2 3 1010.5 - 0.2
26/12:30am 7.2 5.1 5.7 90 0.7 ESE 6 7 3 4 1010.4 - 0.2
26/12:00am 7.1 4.8 4.6 84 1.1 SSE 6 7 3 4 1010.4 1010.7 0.2
 
Date/Time
EST
Temp
°C
App
Temp
°C
Dew
Point
°C
Rel
Hum
%
Delta-T
°C
Wind Press
QNH
hPa
Press
MSL
hPa
Rain since
9am
mm
Dir  Spd
km/h
Gust
km/h
Spd
kts
Gust
kts
25/11:30pm 6.3 3.6 3.7 83 1.1 S 7 9 4 5 1010.3 - 0.2
25/11:00pm 5.6 2.8 3.0 83 1.1 S 7 9 4 5 1010.2 - 0.2
25/10:30pm 6.4 3.7 3.6 82 1.2 SSE 7 11 4 6 1010.1 - 0.2
25/10:00pm 7.4 4.5 2.4 70 2.1 SW 7 9 4 5 1010.1 - 0.2
25/09:30pm 6.8 3.8 4.0 82 1.2 NE 9 11 5 6 1009.7 - 0.2
25/09:00pm 6.9 3.2 2.6 74 1.8 ESE 11 13 6 7 1009.3 1009.7 0.2
25/08:30pm 7.9 3.9 3.0 71 2.1 SSE 13 15 7 8 1009.1 - 0.2
25/08:00pm 8.9 4.8 2.3 63 2.8 SSE 13 17 7 9 1008.8 - 0.2
25/07:30pm 9.6 5.6 2.9 63 2.9 SSE 13 19 7 10 1008.3 - 0.2
25/07:00pm 10.5 6.9 2.7 58 3.4 SSW 11 17 6 9 1007.5 - 0.2
25/06:30pm 10.8 7.9 4.4 64 2.9 WNW 9 13 5 7 1006.9 - 0.2
25/06:00pm 11.5 8.3 5.3 65 2.9 W 11 15 6 8 1006.7 1007.0 0.2
25/05:30pm 12.6 9.2 6.1 64 3.1 WNW 13 20 7 11 1006.0 - 0.2
25/05:00pm 13.1 9.8 6.3 63 3.3 WNW 13 20 7 11 1005.6 - 0.2
25/04:30pm 13.1 9.3 6.0 62 3.4 WNW 15 20 8 11 1005.3 - 0.2
25/04:00pm 12.8 8.7 4.1 55 4.0 WNW 15 26 8 14 1005.0 - 0.2
25/03:30pm 12.1 8.5 4.8 61 3.4 WNW 13 17 7 9 1004.9 - 0.2
25/03:00pm 12.2 7.8 4.6 59 3.5 W 17 30 9 16 1004.9 1005.2 0.2
25/02:30pm 12.8 9.0 4.1 55 4.0 WSW 13 20 7 11 1004.6 - 0.2
25/02:00pm 12.3 7.6 6.0 65 3.0 SSW 20 32 11 17 1004.6 - 0.2
25/01:30pm 14.6 9.0 3.3 46 5.2 W 22 35 12 19 1003.9 - 0.2
25/01:00pm 14.4 9.0 2.4 44 5.4 WNW 20 32 11 17 1003.8 - 0.2
25/12:30pm 14.3 9.1 3.4 48 5.0 W 20 35 11 19 1003.8 - 0.2
25/12:00pm 13.8 8.2 3.6 50 4.7 W 22 35 12 19 1003.9 1004.1 0.2
25/11:30am 13.8 8.9 4.9 55 4.2 W 20 30 11 16 1003.7 - 0.2
25/11:00am 12.7 7.6 4.0 55 4.0 W 20 35 11 19 1003.6 - 0.0
25/10:30am 12.9 7.9 4.8 58 3.8 W 20 33 11 18 1003.4 - 0.0
25/10:00am 12.5 7.7 4.8 59 3.6 WNW 19 30 10 16 1003.6 - 0.0
25/09:30am 12.3 8.5 7.4 72 2.4 W 17 26 9 14 1003.6 - 0.0
25/09:00am 12.0 8.7 8.2 77 1.9 WNW 15 24 8 13 1003.4 1003.6 9.8
25/08:30am 11.6 8.5 9.0 84 1.3 WNW 15 22 8 12 1003.1 - 9.8
25/08:00am 10.6 7.6 9.4 92 0.6 WNW 15 24 8 13 1002.7 - 9.8
25/07:30am 10.4 8.0 10.0 97 0.2 NW 13 20 7 11 1002.4 - 9.8
25/07:00am 10.4 7.6 10.0 97 0.2 NW 15 20 8 11 1002.3 - 9.8
25/06:30am 10.6 7.9 10.2 97 0.2 NNW 15 22 8 12 1002.0 - 9.8
25/06:00am 10.5 8.9 10.1 97 0.2 N 9 13 5 7 1002.2 1002.4 9.8
25/05:30am 10.5 8.8 9.9 96 0.3 N 9 13 5 7 1002.2 - 9.2
25/05:00am 10.5 8.8 9.9 96 0.3 NNW 9 11 5 6 1002.3 - 9.2
25/04:30am 10.4 9.7 10.0 97 0.2 NW 4 7 2 4 1002.2 - 9.2
25/04:00am 10.0 9.9 9.6 97 0.2 CALM 0 0 0 0 1002.0 - 9.2
25/03:30am 9.9 8.7 9.5 97 0.2 WNW 6 11 3 6 1002.5 - 9.2
25/03:00am 10.1 8.7 9.5 96 0.3 N 7 9 4 5 1003.0 1003.2 9.2
25/02:30am 9.8 9.7 9.4 97 0.2 CALM 0 0 0 0 1003.4 - 9.2
25/02:00am 9.5 8.2 9.3 99 0.1 SSW 6 11 3 6 1003.6 - 9.2
25/01:30am 9.6 8.7 9.4 99 0.1 SW 4 7 2 4 1003.8 - 9.2
25/01:00am 9.8 8.0 9.6 99 0.1 E 9 11 5 6 1004.0 - 9.2
25/12:30am 9.4 6.8 9.2 99 0.1 SSE 13 15 7 8 1003.9 - 9.2
25/12:00am 9.4 7.5 9.2 99 0.1 S 9 13 5 7 1004.2 1004.3 9.2
 
Date/Time
EST
Temp
°C
App
Temp
°C
Dew
Point
°C
Rel
Hum
%
Delta-T
°C
Wind Press
QNH
hPa
Press
MSL
hPa
Rain since
9am
mm
Dir  Spd
km/h
Gust
km/h
Spd
kts
Gust
kts
24/11:30pm 10.3 9.0 10.1 99 0.1 ESE 7 9 4 5 1004.6 - 9.2
24/11:00pm 10.2 8.9 10.0 99 0.1 ESE 7 9 4 5 1004.9 - 9.2
24/10:30pm 10.8 9.7 10.6 99 0.1 SE 7 11 4 6 1005.2 - 9.2
24/10:00pm 11.0 9.9 10.6 97 0.2 S 7 9 4 5 1005.4 - 9.2
24/09:30pm 10.4 8.8 10.2 99 0.1 ESE 9 11 5 6 1005.6 - 9.2
24/09:00pm 10.2 9.1 9.8 97 0.2 ENE 6 7 3 4 1005.9 1006.2 9.2
24/08:30pm 9.9 8.7 9.7 99 0.1 ENE 6 7 3 4 1006.1 - 9.2
24/08:00pm 11.4 10.6 11.0 97 0.2 ENE 6 7 3 4 1006.2 - 9.2
24/07:30pm 11.0 9.8 10.2 95 0.4 ENE 7 9 4 5 1006.1 - 9.2
24/07:00pm 12.2 11.5 11.5 95 0.4 NNW 6 6 3 3 1006.1 - 9.2
24/06:30pm 12.5 11.7 11.6 94 0.5 NNW 7 9 4 5 1006.0 - 9.2
24/06:00pm 12.9 11.4 12.0 94 0.5 N 11 13 6 7 1006.2 1006.5 9.2
24/05:30pm 13.1 10.5 12.0 93 0.6 N 17 20 9 11 1006.3 - 9.2

Other Formats:

Comma delimited format used in spreadsheet applications
http://www.bom.gov.au/fwo/IDT60801/IDT60801.94972.axf

JavaScript Object Notation format (JSON) in row-major order
http://www.bom.gov.au/fwo/IDT60801/IDT60801.94972.json